Time;durP1;ratioP1;P1;durP2;ratioP2;P2;SDS_P1;SDS_P2;PMS_P1;PMS_P2;Temp;Humidity;BMP_temperature;BMP_pressure;BME280_temperature;BME280_humidity;BME280_pressure;Samples;Min_cycle;Max_cycle;Signal;HPM_P1;HPM_P2
2022/08/04 00:00:06;;;;;;;3.67;3.33;;;;;;;20.24;80.84;101362.97;4771255;29;20067;-77
2022/08/04 00:02:55;;;;;;;3.50;3.20;;;;;;;20.17;81.21;101353.38;4770490;29;20496;-77
2022/08/04 00:05:29;;;;;;;4.68;3.13;;;;;;;20.17;81.37;101353.38;4787599;29;20109;-77
2022/08/04 00:08:29;;;;;;;3.10;2.85;;;;;;;20.18;80.58;101357.56;4787427;29;20105;-77
2022/08/04 00:10:59;;;;;;;4.50;2.60;;;;;;;20.12;81.68;101347.97;4787410;29;20066;-77
2022/08/04 00:13:29;;;;;;;3.08;2.88;;;;;;;20.05;82.00;101346.50;4786704;29;20469;-77
2022/08/04 00:16:05;;;;;;;8.27;3.13;;;;;;;20.03;81.60;101342.81;4786927;29;20048;-76
2022/08/04 00:18:48;;;;;;;4.85;3.20;;;;;;;20.01;81.47;101350.66;4786018;29;20086;-77
2022/08/04 00:21:21;;;;;;;4.90;3.50;;;;;;;19.92;82.44;101347.00;4786948;29;20426;-77
2022/08/04 00:23:48;;;;;;;6.45;3.20;;;;;;;19.90;81.95;101343.31;4785741;29;20067;-76
2022/08/04 00:26:35;;;;;;;5.53;3.03;;;;;;;19.85;82.46;101344.03;4786859;29;20055;-76
2022/08/04 00:29:02;;;;;;;3.28;3.05;;;;;;;19.80;82.51;101340.09;4770787;29;20060;-76
2022/08/04 00:31:28;;;;;;;4.95;3.20;;;;;;;19.76;82.60;101336.16;4786491;29;20113;-76
2022/08/04 00:34:16;;;;;;;3.67;3.25;;;;;;;19.72;82.88;101335.66;4787264;29;20044;-76
2022/08/04 00:36:44;;;;;;;7.57;3.10;;;;;;;19.73;82.48;101329.03;4786897;29;20537;-76
2022/08/04 00:39:13;;;;;;;4.00;3.58;;;;;;;19.69;83.08;101331.22;4770876;29;20055;-76
2022/08/04 00:42:09;;;;;;;3.95;3.10;;;;;;;19.64;82.63;101328.03;4786742;29;20059;-77
2022/08/04 00:44:51;;;;;;;3.45;3.15;;;;;;;19.57;83.28;101333.19;4786374;29;20054;-76
2022/08/04 00:47:30;;;;;;;;;;;;;;;19.58;81.84;101326.56;4787777;29;20048;-76
2022/08/04 00:50:23;;;;;;;5.35;2.80;;;;;;;19.56;82.63;101323.59;4786874;29;19962;-77
2022/08/04 00:52:55;;;;;;;9.02;3.50;;;;;;;19.53;83.29;101324.56;4786897;29;20044;-76
2022/08/04 00:55:41;;;;;;;6.50;3.22;;;;;;;19.50;83.43;101320.88;4786809;29;20051;-76
2022/08/04 00:58:21;;;;;;;4.18;3.13;;;;;;;19.49;83.02;101316.69;4786798;29;20141;-77
2022/08/04 01:01:00;;;;;;;5.60;3.50;;;;;;;19.48;82.91;101322.56;4786342;29;20055;-76
2022/08/04 01:03:48;;;;;;;5.70;3.20;;;;;;;19.46;84.06;101316.91;4786737;29;20113;-76
2022/08/04 01:06:53;;;;;;;8.40;3.50;;;;;;;19.43;83.59;101321.31;4785338;29;20059;-77
2022/08/04 01:09:51;;;;;;;5.25;3.50;;;;;;;19.42;84.50;101314.44;4785181;29;20056;-76
2022/08/04 01:12:27;;;;;;;9.63;3.35;;;;;;;19.39;84.20;101314.69;4786946;29;20059;-76
2022/08/04 01:15:06;;;;;;;10.02;3.88;;;;;;;19.38;84.17;101310.50;4786081;29;20514;-77
2022/08/04 01:17:51;;;;;;;3.88;3.38;;;;;;;19.33;84.31;101309.28;4786515;29;20047;-77
2022/08/04 01:20:24;;;;;;;5.82;3.60;;;;;;;19.32;84.61;101307.78;4786922;29;20055;-77
2022/08/04 01:23:15;;;;;;;6.45;3.85;;;;;;;19.27;84.66;101306.53;4786385;29;20912;-77
2022/08/04 01:26:08;;;;;;;10.95;4.00;;;;;;;19.28;84.14;101308.03;4786070;29;20495;-77
2022/08/04 01:29:11;;;;;;;6.68;4.00;;;;;;;19.27;83.68;101311.22;4786006;29;20090;-76
2022/08/04 01:31:58;;;;;;;3.70;3.40;;;;;;;19.24;84.49;101306.78;4786459;29;20055;-77
2022/08/04 01:34:30;;;;;;;6.90;3.83;;;;;;;19.20;85.46;101303.56;4785551;29;20051;-77
2022/08/04 01:37:11;;;;;;;6.28;3.67;;;;;;;19.15;85.10;101299.66;4784982;29;20498;-76
2022/08/04 01:39:49;;;;;;;8.70;4.03;;;;;;;19.14;84.40;101300.88;4785978;29;20052;-76
2022/08/04 01:42:20;;;;;;;7.57;3.95;;;;;;;19.11;84.85;101299.16;4786093;29;20056;-76
2022/08/04 01:45:01;;;;;;;4.70;3.78;;;;;;;19.09;84.61;101306.25;4785744;29;20047;-76
2022/08/04 01:47:29;;;;;;;6.28;3.88;;;;;;;19.02;85.27;101295.91;4786069;29;20113;-76
2022/08/04 01:50:14;;;;;;;6.88;4.22;;;;;;;19.01;84.50;101295.19;4785755;29;20048;-76
2022/08/04 01:52:43;;;;;;;7.05;3.88;;;;;;;18.93;85.59;101296.84;4785786;29;20113;-76
2022/08/04 01:55:16;;;;;;;8.30;3.80;;;;;;;18.90;84.79;101293.16;4786394;29;20102;-76
2022/08/04 01:57:48;;;;;;;7.43;3.97;;;;;;;18.92;84.74;101298.81;4785529;29;20082;-76
2022/08/04 02:00:21;;;;;;;5.85;3.35;;;;;;;18.88;85.53;101295.59;4786278;29;20107;-76
2022/08/04 02:02:49;;;;;;;5.70;3.63;;;;;;;18.87;85.43;101298.78;4785069;29;20056;-76
2022/08/04 02:05:18;;;;;;;5.88;3.67;;;;;;;18.88;85.15;101302.97;4785803;29;20047;-76
2022/08/04 02:07:47;;;;;;;4.50;4.03;;;;;;;18.87;85.47;101296.09;4785708;29;20110;-76
2022/08/04 02:10:27;;;;;;;9.50;3.35;;;;;;;18.87;84.98;101293.38;4785705;29;20553;-76
2022/08/04 02:13:14;;;;;;;5.03;3.00;;;;;;;18.87;84.90;101290.69;4785226;29;20059;-76
2022/08/04 02:15:56;;;;;;;3.40;3.10;;;;;;;18.82;85.45;101289.44;4785613;29;20449;-76
2022/08/04 02:19:02;;;;;;;4.38;3.50;;;;;;;18.84;84.88;101289.69;4784832;29;20055;-76
2022/08/04 02:21:30;;;;;;;6.95;3.17;;;;;;;18.82;85.83;101286.75;4785724;29;20054;-76
2022/08/04 02:24:14;;;;;;;5.30;3.00;;;;;;;18.81;85.72;101277.19;4785791;29;20056;-76
2022/08/04 02:26:46;;;;;;;5.00;3.42;;;;;;;18.80;85.84;101281.09;4768810;29;20062;-75
2022/08/04 02:29:18;;;;;;;4.75;3.00;;;;;;;18.77;86.24;101287.47;4785825;29;20056;-76
2022/08/04 02:32:05;;;;;;;4.82;3.17;;;;;;;18.72;85.67;101282.06;4785740;29;20461;-75
2022/08/04 02:34:51;;;;;;;3.85;3.10;;;;;;;18.71;85.68;101278.63;4785207;29;20048;-75
2022/08/04 02:37:19;;;;;;;9.63;3.70;;;;;;;18.69;85.99;101280.31;4785868;29;20052;-76
2022/08/04 02:39:52;;;;;;;4.68;3.08;;;;;;;18.68;85.85;101274.19;4785498;29;20103;-75
2022/08/04 02:42:19;;;;;;;5.40;3.10;;;;;;;18.67;85.91;101272.72;4785314;29;20545;-75
2022/08/04 02:44:50;;;;;;;5.28;3.20;;;;;;;18.65;86.66;101275.88;4786010;29;20116;-75
2022/08/04 02:47:20;;;;;;;6.65;3.20;;;;;;;18.67;86.29;101267.31;4788885;29;20059;-76
2022/08/04 02:49:50;;;;;;;3.65;2.67;;;;;;;18.65;86.52;101269.75;4789006;29;20461;-76
2022/08/04 02:52:18;;;;;;;11.55;3.20;;;;;;;18.63;86.33;101270.25;4788505;29;20059;-76
2022/08/04 02:54:47;;;;;;;4.25;3.00;;;;;;;18.62;86.25;101260.69;4788282;29;20055;-76
2022/08/04 02:57:17;;;;;;;4.93;3.00;;;;;;;18.59;86.29;101253.53;4787971;29;20052;-76
2022/08/04 03:00:13;;;;;;;5.18;2.88;;;;;;;18.60;85.78;101265.81;4788258;29;20058;-77
2022/08/04 03:03:12;;;;;;;3.75;3.08;;;;;;;18.57;85.70;101258.66;4788306;29;20059;-75
2022/08/04 03:05:46;;;;;;;6.13;3.38;;;;;;;18.53;86.45;101262.78;4788254;29;20059;-77
2022/08/04 03:08:59;;;;;;;3.58;3.25;;;;;;;18.53;86.93;101254.72;4788191;29;20063;-75
2022/08/04 03:12:22;;;;;;;3.85;3.10;;;;;;;18.50;86.58;101252.97;4787803;29;20056;-75
2022/08/04 03:15:08;;;;;;;5.55;2.95;;;;;;;18.44;87.01;101257.59;4767967;30;20060;-74
2022/08/04 03:18:15;;;;;;;5.43;3.60;;;;;;;18.43;87.42;101253.41;4768092;30;20067;-77
2022/08/04 03:21:14;;;;;;;4.80;3.10;;;;;;;18.41;87.16;101253.91;4767882;30;20064;-75
2022/08/04 03:24:02;;;;;;;5.65;3.05;;;;;;;18.38;87.07;101254.88;4767869;30;20130;-75
2022/08/04 03:26:51;;;;;;;3.75;3.10;;;;;;;18.37;87.28;101260.75;4767204;30;20139;-75
2022/08/04 03:29:59;;;;;;;7.55;3.22;;;;;;;18.35;86.96;101260.50;4768034;30;20118;-74
2022/08/04 03:32:48;;;;;;;5.07;3.00;;;;;;;18.32;87.47;101259.50;4767754;30;20121;-75
2022/08/04 03:35:48;;;;;;;9.45;3.50;;;;;;;18.29;87.62;101257.75;4768068;30;20078;-75
2022/08/04 03:38:50;;;;;;;6.18;3.13;;;;;;;18.31;87.13;101253.38;4767738;30;20059;-75
2022/08/04 03:41:45;;;;;;;6.32;4.13;;;;;;;18.28;87.63;101254.34;4767784;30;20087;-75
2022/08/04 03:44:44;;;;;;;6.40;3.00;;;;;;;18.28;87.61;101250.91;4767785;29;20494;-76
2022/08/04 03:47:36;;;;;;;6.00;3.47;;;;;;;18.24;88.03;101248.41;4787592;29;20052;-76
2022/08/04 03:50:39;;;;;;;5.28;3.05;;;;;;;18.22;87.93;101247.41;4787813;29;20059;-76
2022/08/04 03:53:31;;;;;;;3.45;3.15;;;;;;;18.16;88.49;101247.38;4800954;29;20123;-76
2022/08/04 03:56:27;;;;;;;4.63;3.08;;;;;;;18.17;88.09;101253.50;4800885;29;20150;-76
2022/08/04 03:59:23;;;;;;;6.93;3.00;;;;;;;18.15;87.93;101240.50;4787675;29;20117;-76
2022/08/04 04:02:10;;;;;;;4.95;3.20;;;;;;;18.16;87.78;101246.63;4800818;29;20056;-76
2022/08/04 04:05:10;;;;;;;5.63;3.10;;;;;;;18.12;88.24;101252.25;4801102;29;20047;-76
2022/08/04 04:08:15;;;;;;;5.22;2.90;;;;;;;18.09;88.26;101252.47;4786963;29;20048;-76
2022/08/04 04:11:18;;;;;;;12.02;3.58;;;;;;;18.09;88.22;101247.06;4787332;29;20070;-77
2022/08/04 04:13:51;;;;;;;4.53;3.05;;;;;;;18.08;88.61;101253.69;4786786;29;20521;-77
2022/08/04 04:16:27;;;;;;;6.88;2.90;;;;;;;18.10;88.87;101259.34;4787489;29;20051;-76
2022/08/04 04:19:16;;;;;;;7.15;2.72;;;;;;;18.05;88.85;101252.69;4785923;29;20573;-77
2022/08/04 04:22:02;;;;;;;5.22;2.67;;;;;;;18.13;88.04;101261.06;4786862;29;20583;-77
2022/08/04 04:24:35;;;;;;;4.05;3.00;;;;;;;18.14;88.86;101251.78;4787181;29;20052;-77
2022/08/04 04:27:20;;;;;;;4.70;2.90;;;;;;;18.20;88.28;101255.25;4786828;29;20055;-77
2022/08/04 04:29:59;;;;;;;4.78;3.00;;;;;;;18.25;88.13;101254.53;4787346;29;20059;-76
2022/08/04 04:32:48;;;;;;;5.65;2.90;;;;;;;18.30;87.67;101251.16;4770667;29;20059;-76
2022/08/04 04:35:45;;;;;;;7.10;2.88;;;;;;;18.35;87.72;101253.16;4785578;29;20055;-77
2022/08/04 04:38:43;;;;;;;4.03;2.90;;;;;;;18.41;88.09;101250.47;4786477;29;20059;-76
2022/08/04 04:41:35;;;;;;;3.20;2.90;;;;;;;18.44;88.14;101249.50;4786900;29;20055;-76
2022/08/04 04:44:41;;;;;;;6.43;2.83;;;;;;;18.46;87.40;101252.47;4786758;29;20058;-76
2022/08/04 04:47:36;;;;;;;6.05;2.88;;;;;;;18.50;87.21;101261.78;4787044;29;20234;-76
2022/08/04 04:50:35;;;;;;;8.25;2.92;;;;;;;18.54;87.34;101256.19;4785176;29;20644;-77
2022/08/04 04:53:15;;;;;;;4.13;2.47;;;;;;;18.61;86.98;101259.19;4786321;29;20133;-77
2022/08/04 04:55:46;;;;;;;7.40;3.00;;;;;;;18.64;87.20;101260.19;4785591;29;20051;-76
2022/08/04 04:58:16;;;;;;;5.30;3.15;;;;;;;18.73;86.91;101251.16;4786590;29;20052;-76
2022/08/04 05:00:54;;;;;;;8.20;3.53;;;;;;;18.81;86.31;101254.88;4786496;29;20579;-77
2022/08/04 05:03:47;;;;;;;5.40;3.33;;;;;;;18.86;86.39;101262.97;4786584;29;20056;-77
2022/08/04 05:06:28;;;;;;;6.53;3.08;;;;;;;19.39;85.20;101264.13;4786086;29;20044;-76
2022/08/04 05:09:11;;;;;;;9.13;3.10;;;;;;;20.16;81.45;101265.41;4786432;29;20055;-77
2022/08/04 05:11:59;;;;;;;5.80;4.10;;;;;;;20.68;79.14;101275.66;4785386;29;20063;-76
2022/08/04 05:14:32;;;;;;;8.90;3.75;;;;;;;21.16;77.15;101272.50;4785976;29;20426;-77
2022/08/04 05:17:24;;;;;;;9.05;3.80;;;;;;;21.20;76.57;101272.97;4786407;29;20052;-77
2022/08/04 05:20:20;;;;;;;8.18;3.95;;;;;;;20.86;77.32;101277.06;4785230;29;20456;-77
2022/08/04 05:22:57;;;;;;;7.75;3.90;;;;;;;20.62;78.82;101272.22;4786508;29;20118;-76
2022/08/04 05:25:36;;;;;;;8.00;3.75;;;;;;;20.62;79.29;101270.25;4786422;29;20052;-76
2022/08/04 05:28:09;;;;;;;5.68;3.40;;;;;;;20.76;79.35;101265.81;4786514;29;20043;-76
2022/08/04 05:30:47;;;;;;;4.00;3.70;;;;;;;20.83;78.79;101267.97;4786362;29;20051;-77
2022/08/04 05:33:26;;;;;;;6.15;4.05;;;;;;;20.69;79.33;101269.03;4786303;29;20047;-77
2022/08/04 05:35:58;;;;;;;3.92;3.60;;;;;;;20.98;79.10;101270.38;4785851;29;20051;-76
2022/08/04 05:38:50;;;;;;;4.72;3.80;;;;;;;21.09;78.30;101275.00;4786218;29;20113;-77
2022/08/04 05:41:17;;;;;;;6.72;3.85;;;;;;;20.94;78.93;101269.91;4786438;29;20048;-77
2022/08/04 05:43:45;;;;;;;8.82;3.60;;;;;;;20.88;79.90;101277.28;4785973;29;20853;-77
2022/08/04 05:46:14;;;;;;;7.03;3.30;;;;;;;21.01;79.53;101277.50;4785805;29;20509;-77
2022/08/04 05:48:42;;;;;;;11.05;3.92;;;;;;;21.15;78.83;101273.00;4786101;29;20056;-77
2022/08/04 05:51:11;;;;;;;6.97;3.83;;;;;;;21.28;78.50;101267.78;4785459;29;20056;-76
2022/08/04 05:53:41;;;;;;;15.68;4.40;;;;;;;21.70;77.13;101269.22;4785670;29;20059;-77
2022/08/04 05:56:09;;;;;;;10.73;3.87;;;;;;;22.07;75.19;101262.53;4785865;29;20063;-75
2022/08/04 05:58:37;;;;;;;10.60;3.85;;;;;;;22.04;74.81;101260.84;4785626;29;20502;-76
2022/08/04 06:01:07;;;;;;;10.15;4.22;;;;;;;22.05;75.33;101262.31;4785731;29;20052;-76
2022/08/04 06:03:36;;;;;;;5.68;3.53;;;;;;;22.19;75.37;101263.91;4785200;29;20067;-77
2022/08/04 06:06:03;;;;;;;7.22;3.80;;;;;;;22.21;74.79;101267.59;4785729;29;20044;-76
2022/08/04 06:08:30;;;;;;;4.60;4.20;;;;;;;21.99;75.44;101267.03;4785736;29;20048;-75
2022/08/04 06:11:02;;;;;;;7.10;3.70;;;;;;;22.02;75.61;101264.06;4768720;29;20059;-75
2022/08/04 06:13:34;;;;;;;4.90;3.42;;;;;;;21.98;77.10;101263.59;4783657;29;20060;-75
2022/08/04 06:16:18;;;;;;;6.68;3.70;;;;;;;22.02;76.31;101264.06;4785781;29;20509;-75
2022/08/04 06:19:02;;;;;;;5.30;3.80;;;;;;;22.11;75.53;101263.72;4785255;29;20105;-75
2022/08/04 06:21:52;;;;;;;3.97;3.65;;;;;;;22.21;76.05;101256.75;4789022;29;20063;-76
2022/08/04 06:24:23;;;;;;;6.15;3.80;;;;;;;22.28;75.67;101266.28;4788818;29;20062;-77
2022/08/04 06:26:52;;;;;;;9.70;4.40;;;;;;;22.29;75.25;101268.50;4788561;29;20084;-77
2022/08/04 06:29:25;;;;;;;4.78;3.83;;;;;;;22.29;75.44;101267.75;4788824;29;20043;-78
2022/08/04 06:31:57;;;;;;;8.13;3.78;;;;;;;22.29;76.33;101268.50;4788139;29;20085;-78
2022/08/04 06:34:44;;;;;;;;;;;;;;;22.26;75.72;101271.47;4788609;29;20051;-77
2022/08/04 06:37:11;;;;;;;12.90;4.18;;;;;;;22.20;76.59;101257.97;4788506;29;20412;-78
2022/08/04 06:40:00;;;;;;;5.15;3.45;;;;;;;22.24;76.20;101266.56;4788666;29;20052;-79
2022/08/04 06:42:28;;;;;;;11.18;3.80;;;;;;;22.30;76.17;101263.81;4787947;29;20047;-77
2022/08/04 06:44:57;;;;;;;6.22;3.95;;;;;;;22.39;76.07;101268.91;4788136;29;20063;-78
2022/08/04 06:47:25;;;;;;;12.13;3.67;;;;;;;22.45;76.40;101272.25;4787755;29;20052;-78
2022/08/04 06:49:54;;;;;;;7.70;3.22;;;;;;;22.51;75.74;101269.50;4788118;29;20060;-78
2022/08/04 06:52:43;;;;;;;4.18;2.67;;;;;;;22.56;75.29;101274.13;4788090;29;20083;-78
2022/08/04 06:55:10;;;;;;;4.43;3.00;;;;;;;22.62;75.10;101280.22;4787946;29;20088;-78
2022/08/04 06:57:39;;;;;;;6.32;2.88;;;;;;;22.67;73.05;101290.28;4788112;29;20052;-79
2022/08/04 07:00:09;;;;;;;5.15;2.35;;;;;;;22.68;72.94;101286.31;4787992;29;20363;-79
2022/08/04 07:02:51;;;;;;;6.35;2.25;;;;;;;22.73;73.18;101290.97;4787646;29;20048;-78
2022/08/04 07:05:19;;;;;;;7.57;2.40;;;;;;;22.76;72.10;101289.94;4771826;29;20059;-78
2022/08/04 07:07:47;;;;;;;5.38;2.72;;;;;;;22.76;71.51;101291.91;4786852;29;20069;-78
2022/08/04 07:10:26;;;;;;;7.20;2.60;;;;;;;22.78;72.10;101290.19;4773004;29;20059;-77
2022/08/04 07:12:55;;;;;;;8.77;1.95;;;;;;;22.84;71.54;101292.81;4787459;29;20139;-77
2022/08/04 07:15:23;;;;;;;6.13;2.30;;;;;;;22.94;71.55;101293.94;4787890;29;20047;-79
2022/08/04 07:17:51;;;;;;;4.68;2.38;;;;;;;22.99;71.61;101300.53;4786139;29;20130;-78
2022/08/04 07:20:18;;;;;;;7.10;2.60;;;;;;;23.04;71.66;101302.47;4771677;29;20060;-78
2022/08/04 07:23:04;;;;;;;3.03;2.30;;;;;;;23.09;71.85;101302.38;4787792;29;20079;-79
2022/08/04 07:25:33;;;;;;;3.42;3.00;;;;;;;23.08;72.09;101295.50;4756569;29;20056;-78
2022/08/04 07:28:22;;;;;;;6.28;2.28;;;;;;;23.13;71.44;101302.09;4787784;29;20058;-78
2022/08/04 07:30:49;;;;;;;4.03;2.40;;;;;;;23.21;72.15;101300.25;4785782;29;20110;-78
2022/08/04 07:33:16;;;;;;;8.27;2.38;;;;;;;23.23;72.30;101303.19;4770761;29;20052;-78
2022/08/04 07:35:50;;;;;;;7.68;2.80;;;;;;;23.27;72.01;101307.06;4786211;29;20063;-78
2022/08/04 07:38:39;;;;;;;12.90;2.75;;;;;;;23.38;71.55;101305.47;4770925;29;20528;-84
2022/08/04 07:41:24;;;;;;;5.90;2.67;;;;;;;23.46;70.39;101309.78;4786281;29;20079;-83
2022/08/04 07:44:07;;;;;;;7.80;2.65;;;;;;;23.45;70.23;101308.31;4787484;29;20054;-84
2022/08/04 07:46:37;;;;;;;4.18;2.40;;;;;;;23.50;70.18;101302.06;4785309;29;20058;-84
2022/08/04 07:49:05;;;;;;;10.60;2.90;;;;;;;23.54;70.15;101307.25;4786980;29;20541;-83
2022/08/04 07:51:34;;;;;;;5.07;2.30;;;;;;;23.65;71.18;101309.03;4786472;29;20585;-84
2022/08/04 07:54:04;;;;;;;4.65;2.78;;;;;;;23.79;69.33;101305.13;4786988;29;20482;-84
2022/08/04 07:56:35;;;;;;;5.80;2.88;;;;;;;23.91;69.90;101312.59;4786545;29;20552;-83
2022/08/04 07:59:03;;;;;;;11.60;2.47;;;;;;;23.99;68.45;101310.00;4786506;29;20067;-84
2022/08/04 08:01:30;;;;;;;9.60;2.95;;;;;;;24.09;67.66;101313.75;4786028;29;20088;-83
2022/08/04 08:03:57;;;;;;;4.43;2.45;;;;;;;24.19;67.28;101308.66;4785582;29;20059;-83
2022/08/04 08:06:24;;;;;;;6.03;2.10;;;;;;;24.27;67.42;101314.97;4785930;29;20503;-84
2022/08/04 08:09:05;;;;;;;12.07;2.00;;;;;;;24.45;65.48;101318.84;4771034;29;20146;-84
2022/08/04 08:11:41;;;;;;;6.85;2.28;;;;;;;24.51;64.59;101322.19;4786154;29;20048;-84
2022/08/04 08:14:29;;;;;;;8.00;2.72;;;;;;;24.63;63.80;101325.44;4773145;29;20060;-81
2022/08/04 08:16:57;;;;;;;4.43;2.08;;;;;;;24.72;63.63;101319.59;4787263;29;20055;-82
2022/08/04 08:19:24;;;;;;;6.40;2.15;;;;;;;24.93;63.05;101323.84;4785755;29;20481;-82
2022/08/04 08:21:50;;;;;;;5.15;2.22;;;;;;;25.13;62.41;101325.22;4784687;29;20096;-82
2022/08/04 08:24:27;;;;;;;6.43;2.53;;;;;;;25.24;61.86;101322.22;4786469;29;20131;-81
2022/08/04 08:26:54;;;;;;;6.25;2.22;;;;;;;25.38;61.60;101322.94;4786561;29;20048;-81
2022/08/04 08:29:22;;;;;;;6.15;2.33;;;;;;;25.76;61.12;101328.78;4769701;29;20055;-82
2022/08/04 08:31:48;;;;;;;2.67;1.90;;;;;;;25.92;60.16;101332.38;4785590;29;20482;-82
2022/08/04 08:34:24;;;;;;;5.60;2.25;;;;;;;26.03;59.84;101318.44;4785717;29;20055;-83
2022/08/04 08:37:20;;;;;;;9.05;2.30;;;;;;;26.26;60.57;101329.53;4784952;29;20572;-80
2022/08/04 08:39:58;;;;;;;7.57;2.15;;;;;;;26.44;59.67;101323.09;4787002;29;20047;-79
2022/08/04 08:42:39;;;;;;;12.20;2.72;;;;;;;26.76;57.90;101322.75;4770070;29;20606;-78
2022/08/04 08:45:23;;;;;;;;;;;;;;;26.90;58.52;101328.81;4786370;29;20055;-78
2022/08/04 08:48:11;;;;;;;26.25;3.67;;;;;;;26.76;57.46;101328.22;4785948;29;20391;-79
2022/08/04 08:50:57;;;;;;;15.70;2.30;;;;;;;26.95;58.24;101330.66;4785367;29;20055;-79
2022/08/04 08:53:55;;;;;;;8.50;2.15;;;;;;;27.01;57.31;101328.50;4786402;29;20047;-77
2022/08/04 08:56:35;;;;;;;4.35;1.73;;;;;;;27.15;56.26;101331.84;4785325;29;20063;-77
2022/08/04 08:59:30;;;;;;;5.03;1.95;;;;;;;27.39;55.69;101331.34;4769481;29;20066;-77
2022/08/04 09:02:02;;;;;;;6.53;2.88;;;;;;;27.49;55.84;101337.75;4784922;29;20555;-78
2022/08/04 09:04:47;;;;;;;8.02;1.98;;;;;;;27.75;55.64;101333.97;4786541;29;20143;-78
2022/08/04 09:07:39;;;;;;;6.68;1.65;;;;;;;27.77;54.15;101330.69;4786309;29;20051;-78
2022/08/04 09:10:27;;;;;;;9.32;2.13;;;;;;;28.07;54.83;101341.63;4765679;30;20060;-78
2022/08/04 09:13:07;;;;;;;11.93;2.80;;;;;;;28.30;53.77;101344.38;4765464;30;20067;-78
2022/08/04 09:16:06;;;;;;;6.78;2.70;;;;;;;28.31;53.92;101353.31;4765949;30;20068;-78
2022/08/04 09:18:41;;;;;;;5.60;2.28;;;;;;;28.30;54.31;101358.06;4748148;30;20070;-78
2022/08/04 09:21:41;;;;;;;7.53;2.33;;;;;;;28.16;54.21;101360.22;4765862;30;20064;-78
2022/08/04 09:24:17;;;;;;;20.23;4.45;;;;;;;28.31;53.41;101347.84;4765600;30;20064;-77
2022/08/04 09:27:07;;;;;;;7.28;2.40;;;;;;;28.29;53.44;101347.66;4765014;30;20056;-78
2022/08/04 09:30:00;;;;;;;10.23;2.70;;;;;;;28.35;52.77;101346.19;4765913;30;20056;-78
2022/08/04 09:32:40;;;;;;;8.23;2.50;;;;;;;28.40;52.07;101353.47;4755549;30;20554;-80
2022/08/04 09:35:28;;;;;;;4.67;2.00;;;;;;;28.51;52.24;101346.88;4765282;30;20099;-79
2022/08/04 09:38:25;;;;;;;8.25;2.50;;;;;;;28.71;51.66;101356.88;4765732;30;20295;-78
2022/08/04 09:41:20;;;;;;;3.15;1.80;;;;;;;28.87;50.65;101365.78;4765751;30;20151;-78
2022/08/04 09:44:14;;;;;;;7.07;2.22;;;;;;;29.24;49.80;101368.91;4765880;30;20126;-79
2022/08/04 09:47:45;;;;;;;5.15;1.92;;;;;;;29.53;49.05;101368.06;4773751;29;20067;-79
2022/08/04 09:50:36;;;;;;;10.77;1.87;;;;;;;29.49;48.83;101366.97;4769700;29;20106;-79
2022/08/04 09:53:21;;;;;;;;;;;;;;;29.45;49.94;101363.91;4785209;29;20056;-79
2022/08/04 09:56:00;;;;;;;2.35;1.77;;;;;;;29.48;49.18;101374.47;4787809;29;19940;-80
2022/08/04 09:58:52;;;;;;;;;;;;;;;29.58;49.59;101376.63;4789461;29;20052;-77
2022/08/04 10:01:23;;;;;;;3.83;1.83;;;;;;;29.64;48.45;101380.59;4790028;29;19930;-86
2022/08/04 10:03:52;;;;;;;15.80;2.60;;;;;;;29.59;48.88;101380.81;4789090;29;20051;-79
2022/08/04 10:06:24;;;;;;;9.00;2.03;;;;;;;29.65;47.43;101384.78;4789391;29;20584;-87
2022/08/04 10:09:16;;;;;;;5.07;1.63;;;;;;;29.45;48.69;101383.09;4787937;29;20075;-81
2022/08/04 10:11:46;;;;;;;8.63;1.83;;;;;;;29.00;49.10;101384.00;4787103;29;20515;-80
2022/08/04 10:14:55;;;;;;;4.97;2.10;;;;;;;29.04;49.83;101387.84;4788490;29;20064;-84
2022/08/04 10:17:38;;;;;;;5.43;1.80;;;;;;;28.90;50.27;101391.34;4772699;29;20149;-81
2022/08/04 10:20:41;;;;;;;5.18;2.10;;;;;;;28.69;50.40;101384.09;4789082;29;20048;-78
2022/08/04 10:23:46;;;;;;;6.65;2.20;;;;;;;28.65;49.95;101389.22;4788665;29;20590;-79
2022/08/04 10:26:44;;;;;;;7.53;2.00;;;;;;;28.52;49.39;101397.63;4788305;29;20494;-78
2022/08/04 10:29:25;;;;;;;4.28;1.90;;;;;;;28.43;49.69;101414.63;4772111;29;20066;-79
2022/08/04 10:32:15;;;;;;;6.60;2.15;;;;;;;28.20;50.32;101407.13;4788586;29;20158;-78
2022/08/04 10:35:13;;;;;;;6.07;2.05;;;;;;;28.17;51.25;101410.97;4788438;29;20158;-84
2022/08/04 10:37:47;;;;;;;6.97;2.00;;;;;;;27.93;51.54;101421.72;4784913;29;20099;-82
2022/08/04 10:40:47;;;;;;;2.08;1.60;;;;;;;27.68;52.11;101435.88;4788051;29;20055;-80
2022/08/04 10:43:38;;;;;;;4.30;1.67;;;;;;;27.36;52.27;101425.38;4787073;29;20442;-81
2022/08/04 10:46:31;;;;;;;;;;;;;;;27.10;53.12;101433.84;4804293;29;20537;-81
2022/08/04 10:49:31;;;;;;;7.78;1.98;;;;;;;26.86;53.60;101424.00;4804225;29;19929;-82
2022/08/04 10:52:23;;;;;;;7.88;1.80;;;;;;;26.72;53.78;101411.75;4804760;29;20560;-80
2022/08/04 10:55:22;;;;;;;4.22;1.80;;;;;;;26.55;54.07;101417.63;4803508;29;20048;-79
2022/08/04 10:58:15;;;;;;;3.35;1.73;;;;;;;26.29;54.50;101459.44;4801329;29;20578;-79
2022/08/04 11:00:44;;;;;;;3.17;1.77;;;;;;;26.16;55.00;101464.97;4788965;29;20059;-82
2022/08/04 11:03:30;;;;;;;4.88;1.80;;;;;;;26.06;55.82;101450.31;4805801;29;20062;-80
2022/08/04 11:06:02;;;;;;;2.97;1.40;;;;;;;26.09;56.07;101436.34;4804660;29;20062;-79
2022/08/04 11:08:35;;;;;;;3.53;1.90;;;;;;;26.17;55.48;101450.06;4804611;29;20114;-79
2022/08/04 11:11:11;;;;;;;4.10;1.95;;;;;;;25.97;55.99;101472.59;4805512;29;20481;-78
2022/08/04 11:14:03;;;;;;;4.80;1.80;;;;;;;25.92;56.71;101474.19;4804762;29;20059;-78
2022/08/04 11:16:45;;;;;;;5.03;2.25;;;;;;;25.94;57.25;101468.22;4805872;29;20048;-81
2022/08/04 11:19:38;;;;;;;8.95;1.98;;;;;;;25.92;55.86;101466.75;4789486;29;20088;-80
2022/08/04 11:22:27;;;;;;;2.58;1.80;;;;;;;26.03;55.91;101462.28;4806014;29;20058;-77
2022/08/04 11:25:08;;;;;;;5.35;1.73;;;;;;;26.34;54.56;101449.69;4805204;29;20072;-77
2022/08/04 11:27:43;;;;;;;1.48;1.38;;;;;;;26.62;54.39;101438.06;4805523;29;20529;-77
2022/08/04 11:30:12;;;;;;;7.00;2.53;;;;;;;26.70;52.94;101436.13;4805501;29;20498;-77
2022/08/04 11:33:19;;;;;;;2.17;1.85;;;;;;;26.80;52.59;101435.09;4805003;29;20042;-77
2022/08/04 11:35:55;;;;;;;5.07;1.90;;;;;;;26.83;52.40;101442.22;4806018;29;20514;-77
2022/08/04 11:38:41;;;;;;;2.50;1.67;;;;;;;26.85;52.42;101428.75;4804801;29;20050;-77
2022/08/04 11:41:16;;;;;;;2.00;1.63;;;;;;;26.96;51.11;101419.56;4804370;29;20047;-79
2022/08/04 11:43:54;;;;;;;2.03;1.77;;;;;;;27.21;50.82;101419.84;4804782;29;20056;-80
2022/08/04 11:46:38;;;;;;;5.03;1.50;;;;;;;27.41;49.67;101427.22;4802684;29;20089;-81
2022/08/04 11:49:10;;;;;;;4.38;1.67;;;;;;;27.40;50.01;101430.50;4803746;29;20524;-79
2022/08/04 11:51:38;;;;;;;2.38;1.50;;;;;;;27.28;50.40;101434.81;4801998;29;20122;-80
2022/08/04 11:54:06;;;;;;;2.35;1.50;;;;;;;27.52;48.68;101432.38;4804478;29;20103;-80
2022/08/04 11:56:33;;;;;;;5.35;1.90;;;;;;;27.69;48.82;101442.81;4787263;29;20077;-80
2022/08/04 11:59:06;;;;;;;2.60;1.73;;;;;;;27.77;49.98;101432.63;4804681;29;20057;-81
2022/08/04 12:02:01;;;;;;;2.28;1.55;;;;;;;27.91;48.98;101432.47;4804531;29;20118;-81
2022/08/04 12:04:44;;;;;;;1.73;1.60;;;;;;;28.01;47.67;101434.13;4803528;29;20508;-80
2022/08/04 12:07:27;;;;;;;6.30;2.05;;;;;;;28.32;46.94;101423.22;4787305;29;20079;-81
2022/08/04 12:10:19;;;;;;;3.67;2.00;;;;;;;28.53;45.24;101427.22;4801379;29;20130;-78
2022/08/04 12:13:17;;;;;;;3.35;1.80;;;;;;;28.44;46.13;101432.50;4803341;29;20051;-80
2022/08/04 12:16:21;;;;;;;4.03;1.85;;;;;;;28.36;45.99;101423.59;4805071;29;20047;-78
2022/08/04 12:19:04;;;;;;;3.63;1.90;;;;;;;28.44;47.14;101422.28;4804296;29;20054;-78
2022/08/04 12:21:51;;;;;;;4.38;2.08;;;;;;;28.70;46.42;101428.66;4804613;29;20104;-79
2022/08/04 12:24:40;;;;;;;2.15;1.88;;;;;;;28.73;45.56;101427.56;4804996;29;20058;-82
2022/08/04 12:27:14;;;;;;;4.38;1.85;;;;;;;28.59;45.33;101429.75;4788209;29;20540;-80
2022/08/04 12:29:41;;;;;;;4.18;2.00;;;;;;;28.50;45.17;101435.78;4788843;29;20051;-79
2022/08/04 12:32:35;;;;;;;5.63;1.90;;;;;;;28.58;45.14;101444.72;4803740;29;20108;-80